Time;durP1;ratioP1;P1;durP2;ratioP2;P2;SDS_P1;SDS_P2;PMS_P1;PMS_P2;Temp;Humidity;BMP_temperature;BMP_pressure;BME280_temperature;BME280_humidity;BME280_pressure;Samples;Min_cycle;Max_cycle;Signal;HPM_P1;HPM_P2
2023/03/24 00:01:05;;;;;;;7.47;4.18;;;11.10;99.90;;;;;;5067161;28;20057;-83
2023/03/24 00:03:31;;;;;;;7.25;3.92;;;11.10;99.90;;;;;;5049020;28;20422;-83
2023/03/24 00:06:01;;;;;;;6.80;4.03;;;11.10;99.90;;;;;;5067105;28;20064;-83
2023/03/24 00:08:34;;;;;;;7.38;3.88;;;11.00;99.90;;;;;;5066695;28;20052;-83
2023/03/24 00:11:06;;;;;;;8.73;4.40;;;11.00;99.90;;;;;;5066278;28;20229;-83
2023/03/24 00:13:37;;;;;;;6.47;3.97;;;11.00;99.90;;;;;;5066921;28;20379;-83
2023/03/24 00:16:20;;;;;;;8.18;3.90;;;11.00;99.90;;;;;;5065780;28;20052;-83
2023/03/24 00:18:51;;;;;;;6.38;3.97;;;11.00;99.90;;;;;;5064898;28;20049;-83
2023/03/24 00:21:20;;;;;;;6.70;3.90;;;11.00;99.90;;;;;;5067212;28;20117;-83
2023/03/24 00:23:48;;;;;;;8.77;4.05;;;11.00;99.90;;;;;;5064914;28;20404;-84
2023/03/24 00:26:15;;;;;;;7.60;4.32;;;11.00;99.90;;;;;;5066257;28;20098;-83
2023/03/24 00:28:43;;;;;;;4.72;3.50;;;11.00;99.90;;;;;;5066916;28;20032;-84
2023/03/24 00:31:09;;;;;;;9.55;3.75;;;11.00;99.90;;;;;;5064993;28;20029;-83
2023/03/24 00:33:36;;;;;;;7.80;4.22;;;11.00;99.90;;;;;;5048995;28;20097;-83
2023/03/24 00:36:04;;;;;;;6.70;3.92;;;11.00;99.90;;;;;;5066067;28;20048;-83
2023/03/24 00:38:30;;;;;;;7.90;3.38;;;11.00;99.90;;;;;;5064835;28;20148;-83
2023/03/24 00:40:57;;;;;;;5.82;3.50;;;11.00;99.90;;;;;;5066372;28;20040;-83
2023/03/24 00:43:23;;;;;;;6.55;3.53;;;11.00;99.90;;;;;;5065716;28;20064;-84
2023/03/24 00:45:51;;;;;;;8.15;3.70;;;10.90;99.90;;;;;;5048960;28;20048;-83
2023/03/24 00:48:18;;;;;;;5.97;3.10;;;11.00;99.90;;;;;;5067336;28;20464;-83
2023/03/24 00:50:46;;;;;;;4.88;3.20;;;11.00;99.90;;;;;;5067754;28;20044;-83
2023/03/24 00:53:15;;;;;;;5.75;3.40;;;11.00;99.90;;;;;;5065550;28;20067;-83
2023/03/24 00:55:48;;;;;;;6.90;3.40;;;11.00;99.90;;;;;;5067638;28;20063;-84
2023/03/24 00:58:17;;;;;;;5.70;3.30;;;11.00;99.90;;;;;;5064466;28;20052;-84
2023/03/24 01:00:47;;;;;;;5.50;3.28;;;11.00;99.90;;;;;;5067600;28;20499;-84
2023/03/24 01:03:13;;;;;;;5.13;3.38;;;11.00;99.90;;;;;;5066357;28;20406;-84
2023/03/24 01:05:40;;;;;;;4.13;3.35;;;11.30;99.90;;;;;;5066243;28;20075;-84
2023/03/24 01:08:07;;;;;;;4.65;3.45;;;11.00;99.90;;;;;;5066097;28;20556;-83
2023/03/24 01:10:41;;;;;;;6.22;3.65;;;11.00;99.90;;;;;;5058004;28;20383;-84
2023/03/24 01:13:07;;;;;;;6.72;3.47;;;11.00;99.90;;;;;;5063785;28;20041;-84
2023/03/24 01:15:37;;;;;;;4.80;3.17;;;11.20;99.90;;;;;;5063928;28;20393;-83
2023/03/24 01:18:08;;;;;;;6.15;3.60;;;11.00;99.90;;;;;;5060905;28;20041;-83
2023/03/24 01:20:35;;;;;;;4.82;3.47;;;11.00;99.90;;;;;;5065613;28;20075;-83
2023/03/24 01:23:03;;;;;;;6.80;3.72;;;11.30;99.90;;;;;;5066860;28;20040;-83
2023/03/24 01:25:36;;;;;;;6.30;3.70;;;11.00;99.90;;;;;;5065582;28;20123;-83
2023/03/24 01:28:02;;;;;;;6.03;3.53;;;11.40;99.90;;;;;;5065545;28;20049;-83
2023/03/24 01:30:29;;;;;;;4.47;3.33;;;11.00;99.90;;;;;;5065346;28;20053;-83
2023/03/24 01:32:58;;;;;;;6.90;3.45;;;11.00;99.90;;;;;;5049463;28;20447;-83
2023/03/24 01:35:25;;;;;;;4.88;3.60;;;11.00;99.90;;;;;;5065523;28;20087;-83
2023/03/24 01:37:51;;;;;;;5.10;3.60;;;11.10;99.90;;;;;;5068570;28;20159;-84
2023/03/24 01:40:20;;;;;;;5.53;3.55;;;11.10;99.90;;;;;;5087037;28;20051;-84
2023/03/24 01:42:47;;;;;;;5.75;3.38;;;11.30;99.90;;;;;;5086214;28;20074;-83
2023/03/24 01:45:34;;;;;;;5.47;3.50;;;11.00;99.90;;;;;;5072062;28;20055;-84
2023/03/24 01:48:01;;;;;;;5.60;3.33;;;11.10;99.90;;;;;;5058278;28;20411;-84
2023/03/24 01:50:27;;;;;;;7.50;3.65;;;11.00;99.90;;;;;;5090264;28;20521;-84
2023/03/24 01:53:14;;;;;;;7.75;3.83;;;11.50;99.90;;;;;;5077167;28;20131;-84
2023/03/24 01:55:41;;;;;;;5.68;3.33;;;11.60;99.90;;;;;;5089882;28;20063;-84
2023/03/24 01:58:08;;;;;;;6.25;3.33;;;11.30;99.90;;;;;;5070867;28;20100;-84
2023/03/24 02:00:36;;;;;;;7.10;3.53;;;11.10;99.90;;;;;;5070230;28;20459;-84
2023/03/24 02:03:08;;;;;;;3.90;3.35;;;11.10;99.90;;;;;;5089264;28;20044;-84
2023/03/24 02:05:36;;;;;;;7.70;3.58;;;11.10;99.90;;;;;;5071085;28;20456;-85
2023/03/24 02:08:17;;;;;;;5.20;4.10;;;11.10;99.90;;;;;;5070421;28;20052;-85
2023/03/24 02:10:43;;;;;;;6.57;3.80;;;11.20;99.90;;;;;;5079066;28;20509;-84
2023/03/24 02:13:10;;;;;;;9.05;3.80;;;11.20;99.90;;;;;;5072932;28;20294;-84
2023/03/24 02:15:45;;;;;;;5.25;3.78;;;11.20;99.90;;;;;;5072269;28;20051;-85
2023/03/24 02:18:35;;;;;;;4.80;3.80;;;11.20;99.90;;;;;;5055711;28;20032;-84
2023/03/24 02:21:27;;;;;;;7.30;3.95;;;11.20;99.90;;;;;;5064949;28;20048;-84
2023/03/24 02:24:17;;;;;;;5.78;3.67;;;11.20;99.90;;;;;;5050330;28;20324;-84
2023/03/24 02:26:46;;;;;;;5.85;4.15;;;11.20;99.90;;;;;;5056108;28;20052;-85
2023/03/24 02:29:38;;;;;;;5.05;3.70;;;11.20;99.90;;;;;;5088966;28;20533;-85
2023/03/24 02:32:25;;;;;;;4.85;3.58;;;11.30;99.90;;;;;;5072375;28;20044;-84
2023/03/24 02:35:31;;;;;;;4.38;3.55;;;11.30;99.90;;;;;;5068068;28;20044;-85
2023/03/24 02:38:42;;;;;;;4.65;3.35;;;11.30;99.90;;;;;;5060878;28;20105;-85
2023/03/24 02:41:25;;;;;;;4.40;3.63;;;11.30;99.90;;;;;;5070280;28;20048;-84
2023/03/24 02:44:12;;;;;;;5.25;4.30;;;11.30;99.90;;;;;;5089803;28;20144;-85
2023/03/24 02:46:52;;;;;;;6.60;3.80;;;11.30;99.90;;;;;;5089447;28;20036;-84
2023/03/24 02:49:51;;;;;;;5.43;4.13;;;11.30;99.90;;;;;;5067638;28;20040;-84
2023/03/24 02:52:30;;;;;;;6.70;4.10;;;11.30;99.90;;;;;;5055294;28;20171;-84
2023/03/24 02:55:04;;;;;;;5.15;3.63;;;11.30;99.90;;;;;;5090757;28;20040;-85
2023/03/24 02:57:32;;;;;;;4.88;3.60;;;11.30;99.90;;;;;;5070007;28;20040;-84
2023/03/24 03:00:31;;;;;;;3.58;3.28;;;11.40;99.90;;;;;;5070645;28;20312;-84
2023/03/24 03:03:10;;;;;;;4.53;3.95;;;11.50;99.90;;;;;;5088542;28;20364;-85
2023/03/24 03:05:43;;;;;;;6.70;3.88;;;11.30;99.90;;;;;;5070057;28;20133;-83
2023/03/24 03:08:12;;;;;;;4.57;3.75;;;11.40;99.90;;;;;;5086290;28;20131;-84
2023/03/24 03:10:42;;;;;;;5.53;4.10;;;11.40;99.90;;;;;;5088691;28;20048;-84
2023/03/24 03:13:17;;;;;;;6.07;4.18;;;11.40;99.90;;;;;;5069688;28;20040;-85
2023/03/24 03:15:50;;;;;;;4.63;4.00;;;11.40;99.90;;;;;;5070075;28;20044;-84
2023/03/24 03:18:21;;;;;;;5.47;4.10;;;11.40;99.90;;;;;;5088171;28;20193;-84
2023/03/24 03:20:52;;;;;;;7.87;4.20;;;11.40;99.90;;;;;;5070597;28;20178;-85
2023/03/24 03:23:35;;;;;;;5.38;3.85;;;11.40;99.90;;;;;;5086115;28;20297;-85
2023/03/24 03:26:06;;;;;;;5.50;4.25;;;11.80;99.90;;;;;;5071899;28;20079;-84
2023/03/24 03:28:48;;;;;;;4.47;4.07;;;11.50;99.90;;;;;;5070395;28;20051;-85
2023/03/24 03:31:22;;;;;;;4.55;4.15;;;11.50;99.90;;;;;;5086343;28;20044;-85
2023/03/24 03:34:14;;;;;;;4.30;3.90;;;11.70;99.90;;;;;;5083977;28;20048;-85
2023/03/24 03:36:58;;;;;;;5.45;3.78;;;11.50;99.90;;;;;;5051056;28;1060633;-85
2023/03/24 03:39:30;;;;;;;6.57;3.85;;;11.50;99.90;;;;;;5071592;28;20063;-85
2023/03/24 03:41:56;;;;;;;6.72;4.18;;;11.90;99.90;;;;;;5070711;28;20056;-85
2023/03/24 03:44:22;;;;;;;4.30;3.70;;;11.40;99.90;;;;;;5054750;28;20133;-85
2023/03/24 03:46:48;;;;;;;6.45;3.72;;;11.40;99.90;;;;;;5089282;28;20097;-85
2023/03/24 03:49:13;;;;;;;4.82;3.72;;;11.40;99.90;;;;;;5069636;28;20040;-86
2023/03/24 03:51:39;;;;;;;3.83;3.40;;;11.40;99.90;;;;;;5053746;28;20109;-85
2023/03/24 03:54:08;;;;;;;3.22;2.75;;;11.50;99.90;;;;;;5088654;28;20068;-85
2023/03/24 03:56:36;;;;;;;2.88;2.10;;;11.40;99.90;;;;;;5069052;28;20044;-86
2023/03/24 03:59:03;;;;;;;4.57;1.95;;;11.30;99.90;;;;;;5069776;28;20048;-86
2023/03/24 04:01:35;;;;;;;3.22;1.63;;;11.20;99.90;;;;;;5055422;28;20091;-86
2023/03/24 04:04:37;;;;;;;3.13;2.05;;;11.20;99.90;;;;;;5087115;28;20036;-83
2023/03/24 04:07:06;;;;;;;5.63;1.80;;;10.50;99.90;;;;;;5071767;28;20044;-85
2023/03/24 04:09:57;;;;;;;2.30;1.80;;;11.00;99.90;;;;;;5087918;28;20060;-84
2023/03/24 04:12:31;;;;;;;3.78;1.95;;;10.90;99.90;;;;;;5088970;28;20040;-84
2023/03/24 04:15:22;;;;;;;4.35;1.80;;;10.70;99.90;;;;;;5069955;28;20090;-85
2023/03/24 04:18:09;;;;;;;3.00;1.50;;;10.70;99.90;;;;;;5071058;28;20078;-85
2023/03/24 04:20:55;;;;;;;6.25;1.83;;;10.60;99.90;;;;;;5052666;28;20040;-85
2023/03/24 04:23:48;;;;;;;7.25;2.40;;;10.60;99.90;;;;;;5090151;28;20044;-85
2023/03/24 04:26:25;;;;;;;5.10;1.90;;;10.60;99.90;;;;;;5069627;28;20523;-85
2023/03/24 04:29:07;;;;;;;3.47;2.20;;;10.50;99.90;;;;;;5086831;28;20090;-84
2023/03/24 04:31:52;;;;;;;9.25;2.40;;;10.50;99.90;;;;;;5086477;28;20062;-84
2023/03/24 04:34:28;;;;;;;3.95;1.60;;;10.80;99.90;;;;;;5068672;28;20155;-84
2023/03/24 04:37:11;;;;;;;6.53;1.63;;;10.40;99.90;;;;;;5084978;28;20110;-85
2023/03/24 04:39:40;;;;;;;4.32;1.88;;;10.40;99.90;;;;;;5051504;28;20442;-84
2023/03/24 04:42:12;;;;;;;7.75;2.00;;;10.40;99.90;;;;;;5051373;28;20048;-84
2023/03/24 04:44:40;;;;;;;9.82;2.50;;;10.30;99.90;;;;;;5078138;28;20043;-85
2023/03/24 04:47:09;;;;;;;5.55;1.75;;;10.30;99.90;;;;;;5088512;28;20055;-84
2023/03/24 04:49:38;;;;;;;5.85;1.75;;;10.30;99.90;;;;;;5054617;28;20055;-83
2023/03/24 04:52:05;;;;;;;3.42;1.58;;;10.20;99.90;;;;;;5070510;28;20493;-84
2023/03/24 04:54:31;;;;;;;4.28;1.83;;;10.20;99.90;;;;;;5053428;28;20090;-84
2023/03/24 04:57:00;;;;;;;6.75;1.90;;;10.20;99.90;;;;;;5086735;28;20093;-83
2023/03/24 04:59:30;;;;;;;4.95;1.98;;;10.20;99.90;;;;;;5087833;28;20080;-83
2023/03/24 05:01:56;;;;;;;5.88;2.10;;;10.10;99.90;;;;;;5085961;28;20052;-83
2023/03/24 05:04:28;;;;;;;5.50;2.10;;;10.10;99.90;;;;;;5087863;28;20093;-84
2023/03/24 05:06:54;;;;;;;;;;;10.10;99.90;;;;;;5054113;28;20054;-83
2023/03/24 05:09:24;;;;;;;6.07;2.08;;;10.00;99.90;;;;;;5088824;28;20002;-83
2023/03/24 05:11:50;;;;;;;10.18;2.53;;;10.00;99.90;;;;;;5068257;28;20129;-83
2023/03/24 05:14:16;;;;;;;5.15;1.90;;;10.00;99.90;;;;;;5068778;28;20048;-84
2023/03/24 05:16:42;;;;;;;8.65;2.47;;;9.90;99.90;;;;;;5055174;28;20041;-83
2023/03/24 05:19:09;;;;;;;9.75;2.60;;;9.90;99.90;;;;;;5082520;28;20062;-83
2023/03/24 05:21:35;;;;;;;5.82;2.03;;;10.00;99.90;;;;;;5070684;28;20125;-84
2023/03/24 05:24:01;;;;;;;7.32;2.28;;;9.90;99.90;;;;;;5070407;28;20454;-84
2023/03/24 05:26:27;;;;;;;11.63;2.50;;;9.90;99.90;;;;;;5087059;28;20043;-83
2023/03/24 05:28:53;;;;;;;7.68;2.78;;;10.00;99.90;;;;;;5069012;28;20067;-84
2023/03/24 05:31:18;;;;;;;8.45;2.30;;;9.90;99.90;;;;;;5071228;28;20062;-83
2023/03/24 05:33:44;;;;;;;5.25;2.30;;;9.80;99.90;;;;;;5091510;28;20056;-84
2023/03/24 05:36:11;;;;;;;5.35;1.65;;;9.80;99.90;;;;;;5070966;28;20188;-84
2023/03/24 05:38:37;;;;;;;7.20;1.85;;;9.70;99.90;;;;;;5070443;28;20084;-83
2023/03/24 05:41:03;;;;;;;5.93;1.65;;;9.70;99.90;;;;;;5038088;28;20045;-84
2023/03/24 05:43:32;;;;;;;10.63;2.35;;;9.70;99.90;;;;;;5050045;28;20159;-83
2023/03/24 05:46:01;;;;;;;5.47;1.73;;;9.70;99.90;;;;;;5057118;28;20087;-83
2023/03/24 05:48:27;;;;;;;6.13;1.70;;;9.60;99.90;;;;;;5086123;28;20040;-84
2023/03/24 05:50:55;;;;;;;9.45;2.25;;;9.50;99.90;;;;;;5087839;28;20138;-84
2023/03/24 05:53:21;;;;;;;4.70;1.85;;;9.50;99.90;;;;;;5070136;28;20101;-83
2023/03/24 05:55:46;;;;;;;6.18;1.80;;;9.40;99.90;;;;;;5069284;28;20052;-83
2023/03/24 05:58:12;;;;;;;5.43;1.63;;;9.40;99.90;;;;;;5087592;28;20044;-83
2023/03/24 06:00:37;;;;;;;5.35;1.50;;;9.30;99.90;;;;;;5070485;28;20127;-84
2023/03/24 06:03:04;;;;;;;5.97;1.70;;;9.30;99.90;;;;;;5068186;28;20032;-84
2023/03/24 06:05:30;;;;;;;9.27;1.95;;;9.60;99.90;;;;;;5069933;28;20127;-83
2023/03/24 06:07:57;;;;;;;5.28;1.60;;;9.20;99.90;;;;;;5071285;28;20486;-84
2023/03/24 06:10:25;;;;;;;7.38;1.92;;;9.20;99.90;;;;;;5069546;28;20055;-84
2023/03/24 06:12:51;;;;;;;6.57;2.00;;;9.20;99.90;;;;;;5052661;28;20410;-83
2023/03/24 06:15:21;;;;;;;5.75;1.83;;;9.20;99.90;;;;;;5067569;28;20043;-84
2023/03/24 06:17:48;;;;;;;6.43;2.58;;;9.30;99.90;;;;;;5068551;28;20048;-84
2023/03/24 06:20:17;;;;;;;7.25;1.90;;;9.20;99.90;;;;;;5052397;28;20173;-84
2023/03/24 06:22:46;;;;;;;5.65;1.63;;;9.30;99.90;;;;;;5069510;28;20394;-84
2023/03/24 06:25:14;;;;;;;7.22;2.00;;;9.30;99.90;;;;;;5065184;28;20650;-84
2023/03/24 06:27:47;;;;;;;5.85;2.00;;;9.40;99.90;;;;;;5068618;28;20123;-85
2023/03/24 06:30:17;;;;;;;6.78;1.67;;;9.50;99.90;;;;;;5048155;28;20040;-84
2023/03/24 06:32:45;;;;;;;3.75;1.73;;;9.50;99.90;;;;;;5071315;28;20052;-84
2023/03/24 06:35:12;;;;;;;7.20;1.88;;;9.60;99.90;;;;;;5061981;28;20047;-84
2023/03/24 06:37:38;;;;;;;5.05;1.80;;;9.60;99.90;;;;;;5059270;28;20041;-85
2023/03/24 06:40:11;;;;;;;8.20;2.05;;;10.20;99.90;;;;;;5067298;28;20044;-85
2023/03/24 06:42:37;;;;;;;4.75;2.13;;;9.70;99.90;;;;;;5067121;28;20059;-85
2023/03/24 06:45:04;;;;;;;6.18;2.10;;;9.70;99.90;;;;;;5090402;28;20108;-84
2023/03/24 06:47:29;;;;;;;8.13;2.35;;;9.70;99.90;;;;;;5072622;28;20052;-85
2023/03/24 06:49:55;;;;;;;4.43;1.52;;;9.80;99.90;;;;;;5073235;28;20052;-85
2023/03/24 06:52:20;;;;;;;5.15;1.73;;;9.80;99.90;;;;;;5055098;28;20091;-84
2023/03/24 06:54:46;;;;;;;7.95;2.17;;;9.90;99.90;;;;;;5072061;28;20044;-84
2023/03/24 06:57:12;;;;;;;6.07;2.00;;;9.90;99.90;;;;;;5070829;28;20044;-84
2023/03/24 06:59:37;;;;;;;6.72;2.20;;;10.30;99.90;;;;;;5072269;28;20064;-85
2023/03/24 07:02:07;;;;;;;7.53;2.20;;;10.00;99.90;;;;;;5072818;28;20518;-85
2023/03/24 07:04:35;;;;;;;6.90;2.40;;;10.00;99.90;;;;;;5091174;28;20041;-83
2023/03/24 07:07:01;;;;;;;8.88;2.20;;;9.80;99.90;;;;;;5071714;28;20040;-85
2023/03/24 07:09:30;;;;;;;7.45;2.00;;;10.10;99.90;;;;;;5071974;28;20051;-85
2023/03/24 07:11:55;;;;;;;11.25;1.92;;;10.60;99.90;;;;;;5090081;28;20410;-85
2023/03/24 07:14:24;;;;;;;10.63;2.35;;;10.50;99.90;;;;;;5055335;28;20478;-84
2023/03/24 07:16:50;;;;;;;6.55;2.15;;;10.10;99.90;;;;;;5055297;28;20051;-84
2023/03/24 07:19:16;;;;;;;11.77;2.50;;;10.10;99.90;;;;;;5054671;28;20043;-84
2023/03/24 07:21:42;;;;;;;11.45;2.28;;;10.10;99.90;;;;;;5072105;28;20048;-84
2023/03/24 07:24:07;;;;;;;8.38;2.00;;;10.10;99.90;;;;;;5072165;28;20083;-84
2023/03/24 07:26:33;;;;;;;8.65;2.05;;;10.10;99.90;;;;;;5071485;28;20534;-83
2023/03/24 07:28:59;;;;;;;9.85;2.67;;;10.10;99.90;;;;;;5055699;28;20050;-83
2023/03/24 07:31:24;;;;;;;8.30;2.40;;;10.20;99.90;;;;;;5055044;28;20036;-83
2023/03/24 07:33:50;;;;;;;5.40;1.88;;;10.20;99.90;;;;;;5090233;28;20040;-84
2023/03/24 07:36:16;;;;;;;11.38;2.20;;;10.60;99.90;;;;;;5054755;28;20052;-84
2023/03/24 07:38:42;;;;;;;11.40;2.83;;;10.50;99.90;;;;;;5055529;28;20048;-83
2023/03/24 07:41:08;;;;;;;12.32;2.75;;;10.90;99.90;;;;;;5071156;28;20526;-83
2023/03/24 07:43:34;;;;;;;10.57;2.78;;;11.20;99.90;;;;;;5054416;28;20043;-82
2023/03/24 07:45:59;;;;;;;10.68;2.63;;;10.60;99.90;;;;;;5072173;28;20051;-84
2023/03/24 07:48:25;;;;;;;10.27;2.47;;;10.60;99.90;;;;;;5055526;28;20044;-84
2023/03/24 07:50:52;;;;;;;13.18;2.45;;;10.60;99.90;;;;;;5056643;28;20061;-83
2023/03/24 07:53:18;;;;;;;11.55;2.53;;;11.40;99.90;;;;;;5071190;28;20495;-84
2023/03/24 07:55:46;;;;;;;11.07;2.08;;;10.70;99.90;;;;;;5071231;28;20036;-84
2023/03/24 07:58:12;;;;;;;11.43;2.72;;;10.80;99.90;;;;;;5073637;28;20490;-86
2023/03/24 08:00:38;;;;;;;10.30;2.88;;;10.80;99.90;;;;;;5057377;28;20055;-83
2023/03/24 08:03:04;;;;;;;9.05;2.53;;;11.10;99.90;;;;;;5069763;28;20050;-86
2023/03/24 08:05:30;;;;;;;13.77;3.35;;;10.90;99.90;;;;;;5051204;28;20543;-85
2023/03/24 08:07:57;;;;;;;15.98;2.90;;;11.10;99.90;;;;;;5051990;28;20059;-86
2023/03/24 08:10:29;;;;;;;14.10;2.75;;;11.60;99.90;;;;;;5051998;28;20460;-86
2023/03/24 08:12:56;;;;;;;;;;;11.30;99.90;;;;;;5054227;28;20186;-86
2023/03/24 08:15:25;;;;;;;10.30;3.35;;;11.40;99.90;;;;;;5069853;28;20015;-86
2023/03/24 08:17:55;;;;;;;10.10;3.03;;;11.40;99.90;;;;;;5070009;28;20436;-85
2023/03/24 08:20:23;;;;;;;12.73;2.60;;;12.30;99.90;;;;;;5070338;28;20432;-85
2023/03/24 08:22:53;;;;;;;15.25;3.95;;;11.70;99.90;;;;;;5088701;28;20051;-85
2023/03/24 08:25:19;;;;;;;12.60;3.47;;;11.90;99.90;;;;;;5088660;28;20577;-85
2023/03/24 08:27:46;;;;;;;17.55;2.88;;;12.30;99.90;;;;;;5089251;28;20346;-85
2023/03/24 08:30:19;;;;;;;13.93;3.20;;;11.90;99.90;;;;;;5089197;28;20127;-85
2023/03/24 08:32:54;;;;;;;14.82;4.28;;;11.90;99.90;;;;;;5071135;28;20046;-85
2023/03/24 08:35:24;;;;;;;12.18;2.63;;;11.90;99.90;;;;;;5071613;28;20052;-86
2023/03/24 08:37:50;;;;;;;10.27;2.85;;;11.90;99.90;;;;;;5088451;28;20055;-86
2023/03/24 08:40:22;;;;;;;12.90;3.15;;;11.90;99.90;;;;;;5070211;28;20052;-84
2023/03/24 08:42:52;;;;;;;12.57;3.00;;;12.60;99.90;;;;;;5070585;28;20054;-85
2023/03/24 08:45:23;;;;;;;14.20;3.22;;;11.70;99.90;;;;;;5088556;28;20052;-85
2023/03/24 08:47:50;;;;;;;9.45;2.95;;;11.90;99.90;;;;;;5070391;28;20036;-85
2023/03/24 08:50:18;;;;;;;11.18;3.55;;;11.90;99.90;;;;;;5053842;28;20044;-85
2023/03/24 08:52:47;;;;;;;14.55;3.22;;;11.90;99.90;;;;;;5053146;28;20047;-86
2023/03/24 08:55:15;;;;;;;12.20;2.65;;;12.20;99.90;;;;;;5088433;28;20075;-83
2023/03/24 08:57:40;;;;;;;9.93;3.08;;;11.80;99.90;;;;;;5069697;28;20051;-83
2023/03/24 09:00:14;;;;;;;17.70;3.60;;;11.90;99.90;;;;;;5053649;28;20406;-85
2023/03/24 09:02:48;;;;;;;9.45;3.15;;;11.90;99.90;;;;;;5054059;28;20040;-86
2023/03/24 09:05:17;;;;;;;10.63;2.38;;;11.80;99.90;;;;;;5070701;28;20048;-85
2023/03/24 09:07:43;;;;;;;12.43;2.65;;;11.90;99.90;;;;;;5052977;28;20043;-85
2023/03/24 09:10:13;;;;;;;12.02;2.55;;;12.00;99.90;;;;;;5088402;28;20040;-87
2023/03/24 09:12:40;;;;;;;10.52;2.75;;;12.00;99.90;;;;;;5069260;28;20048;-87
2023/03/24 09:15:08;;;;;;;10.07;2.15;;;12.10;99.90;;;;;;5054736;28;20059;-87
2023/03/24 09:17:34;;;;;;;7.60;2.47;;;12.20;99.90;;;;;;5074220;28;20047;-88
2023/03/24 09:20:00;;;;;;;16.25;3.85;;;12.60;99.90;;;;;;5069820;28;21154;-88
2023/03/24 09:22:27;;;;;;;9.80;3.30;;;12.80;99.90;;;;;;5071229;28;20111;-87
2023/03/24 09:24:52;;;;;;;11.18;2.90;;;12.30;99.90;;;;;;5048216;28;20051;-86
2023/03/24 09:27:18;;;;;;;11.40;2.38;;;12.30;99.90;;;;;;5071762;28;20044;-87
2023/03/24 09:29:47;;;;;;;12.30;2.97;;;11.90;99.90;;;;;;5072930;28;20039;-87
2023/03/24 09:32:12;;;;;;;11.65;2.35;;;12.20;99.90;;;;;;5073531;28;20040;-87
2023/03/24 09:34:38;;;;;;;9.55;2.58;;;12.00;99.90;;;;;;5072943;28;20055;-87
2023/03/24 09:37:05;;;;;;;8.82;2.20;;;11.80;99.90;;;;;;5074041;28;20151;-88
2023/03/24 09:39:31;;;;;;;10.57;2.75;;;11.80;99.90;;;;;;5055795;28;20040;-86
2023/03/24 09:41:56;;;;;;;11.27;2.25;;;12.00;99.90;;;;;;5072277;28;20486;-87
2023/03/24 09:44:30;;;;;;;12.07;2.50;;;12.20;99.90;;;;;;5072060;28;20054;-85
2023/03/24 09:47:30;;;;;;;9.38;2.08;;;12.40;99.90;;;;;;5054121;28;20056;-85
2023/03/24 09:50:01;;;;;;;11.07;2.20;;;12.50;99.90;;;;;;5051673;28;20058;-89
2023/03/24 09:52:44;;;;;;;9.32;2.28;;;12.70;99.90;;;;;;5054345;28;20066;-85
2023/03/24 09:55:16;;;;;;;7.85;2.15;;;12.70;99.90;;;;;;5070948;28;20051;-86
2023/03/24 09:57:48;;;;;;;7.88;2.88;;;13.00;99.90;;;;;;5055973;28;20103;-86
2023/03/24 10:00:17;;;;;;;10.80;2.50;;;12.60;99.90;;;;;;5071175;28;20040;-86
2023/03/24 10:02:43;;;;;;;10.05;2.60;;;12.80;99.90;;;;;;5074372;28;20786;-86
2023/03/24 10:05:19;;;;;;;9.82;2.70;;;12.90;99.90;;;;;;5076981;28;20052;-86
2023/03/24 10:07:55;;;;;;;10.10;2.80;;;12.90;99.90;;;;;;5076661;28;20044;-86
2023/03/24 10:10:35;;;;;;;7.72;2.33;;;13.50;99.90;;;;;;5073583;28;20042;-87
2023/03/24 10:13:18;;;;;;;8.38;2.38;;;12.70;99.90;;;;;;5057831;28;20097;-87
2023/03/24 10:16:08;;;;;;;15.13;2.80;;;12.50;99.90;;;;;;5073208;28;20044;-87
2023/03/24 10:19:12;;;;;;;7.43;1.70;;;12.30;99.90;;;;;;5056591;28;20052;-86
2023/03/24 10:21:41;;;;;;;11.30;2.40;;;12.30;99.90;;;;;;5043759;28;20048;-82
2023/03/24 10:24:17;;;;;;;10.18;2.20;;;13.00;99.90;;;;;;5053886;28;20083;-83
2023/03/24 10:26:51;;;;;;;15.55;2.90;;;12.50;99.90;;;;;;5073698;28;20520;-84
2023/03/24 10:29:31;;;;;;;11.48;2.97;;;12.50;99.90;;;;;;5068492;28;20057;-86
2023/03/24 10:32:01;;;;;;;8.88;2.63;;;12.60;99.90;;;;;;5056764;28;20071;-85
2023/03/24 10:34:31;;;;;;;11.43;2.40;;;12.30;99.90;;;;;;5075571;28;20047;-85
2023/03/24 10:37:02;;;;;;;11.52;2.72;;;12.60;99.90;;;;;;5070405;28;20414;-86
2023/03/24 10:39:29;;;;;;;11.50;2.63;;;12.70;99.90;;;;;;5060001;28;20048;-84
2023/03/24 10:41:57;;;;;;;8.90;2.13;;;12.70;99.90;;;;;;5038751;28;20053;-88
2023/03/24 10:44:26;;;;;;;11.07;2.30;;;12.70;99.90;;;;;;5053544;28;20048;-88
2023/03/24 10:46:55;;;;;;;7.20;2.45;;;12.70;99.90;;;;;;5052866;28;20114;-87
2023/03/24 10:49:24;;;;;;;11.52;3.28;;;13.00;99.90;;;;;;5052620;28;20052;-87
2023/03/24 10:51:52;;;;;;;7.90;1.80;;;13.10;99.90;;;;;;5059462;28;20150;-89
2023/03/24 10:54:24;;;;;;;8.70;1.85;;;13.00;99.90;;;;;;5056007;28;20040;-87
2023/03/24 10:57:08;;;;;;;11.87;2.20;;;13.20;99.90;;;;;;5045593;28;20462;-87
2023/03/24 11:00:09;;;;;;;9.65;2.15;;;13.30;99.90;;;;;;5058404;28;20693;-88
2023/03/24 11:03:13;;;;;;;7.00;1.75;;;13.40;99.90;;;;;;5073147;28;20498;-86
2023/03/24 11:05:42;;;;;;;8.57;1.80;;;13.70;99.90;;;;;;5037975;28;20053;-86
2023/03/24 11:08:13;;;;;;;8.25;2.05;;;13.80;99.90;;;;;;5051441;28;20097;-86
2023/03/24 11:10:39;;;;;;;6.90;1.67;;;14.20;99.90;;;;;;5087573;28;20126;-85
2023/03/24 11:13:15;;;;;;;6.25;2.13;;;14.10;99.90;;;;;;5089016;28;20040;-85
2023/03/24 11:15:56;;;;;;;9.38;2.22;;;14.00;99.90;;;;;;5050708;28;20033;-87
2023/03/24 11:18:22;;;;;;;6.27;1.80;;;14.20;99.90;;;;;;5064336;28;20036;-86
2023/03/24 11:20:59;;;;;;;8.73;1.58;;;14.20;99.90;;;;;;5053363;28;20040;-86
2023/03/24 11:23:33;;;;;;;6.03;1.52;;;14.20;99.90;;;;;;5068638;28;20063;-86
2023/03/24 11:26:16;;;;;;;7.50;1.92;;;14.10;99.90;;;;;;5070659;28;20060;-85
2023/03/24 11:28:48;;;;;;;6.18;1.83;;;14.10;99.90;;;;;;5068906;28;20040;-85
2023/03/24 11:31:23;;;;;;;6.18;1.83;;;14.20;99.90;;;;;;5068968;28;20039;-85
2023/03/24 11:34:01;;;;;;;7.65;1.75;;;15.00;99.90;;;;;;5071260;28;20175;-85
2023/03/24 11:36:31;;;;;;;8.23;2.00;;;14.80;99.90;;;;;;5054401;28;20427;-85
2023/03/24 11:39:18;;;;;;;9.25;2.80;;;14.60;99.90;;;;;;5053967;28;20395;-86
2023/03/24 11:42:04;;;;;;;7.78;1.88;;;14.80;99.90;;;;;;5071278;28;20048;-86
2023/03/24 11:44:39;;;;;;;9.90;1.80;;;14.80;99.90;;;;;;5053421;28;20490;-85
2023/03/24 11:47:28;;;;;;;9.57;2.08;;;14.80;99.90;;;;;;5054453;28;20097;-84
2023/03/24 11:50:13;;;;;;;8.73;2.05;;;14.90;99.90;;;;;;5054977;28;20049;-84
2023/03/24 11:52:49;;;;;;;9.30;2.58;;;15.00;99.90;;;;;;5047335;28;20514;-85
2023/03/24 11:55:30;;;;;;;8.73;2.22;;;14.80;99.90;;;;;;5050558;28;20119;-86
2023/03/24 11:58:02;;;;;;;7.28;2.25;;;14.90;99.90;;;;;;5054886;28;20052;-85
2023/03/24 12:00:34;;;;;;;7.67;2.50;;;14.60;99.90;;;;;;5068366;28;20056;-86
2023/03/24 12:02:59;;;;;;;5.15;1.45;;;14.60;99.90;;;;;;5053027;28;20051;-86
2023/03/24 12:05:38;;;;;;;10.75;2.70;;;14.70;99.90;;;;;;5052438;28;20048;-86
2023/03/24 12:08:28;;;;;;;8.20;2.22;;;14.80;99.90;;;;;;5070715;28;20048;-85
2023/03/24 12:11:11;;;;;;;11.50;2.33;;;15.00;99.90;;;;;;5069319;28;20539;-84
2023/03/24 12:13:48;;;;;;;8.95;2.03;;;15.20;99.90;;;;;;5052241;28;20040;-86
2023/03/24 12:16:20;;;;;;;6.68;3.03;;;15.30;99.90;;;;;;5068468;28;20052;-86
2023/03/24 12:19:17;;;;;;;5.80;1.90;;;15.20;99.90;;;;;;5068557;28;20044;-84
2023/03/24 12:21:55;;;;;;;7.63;2.28;;;14.90;99.90;;;;;;5062424;28;20087;-85
2023/03/24 12:24:53;;;;;;;5.10;1.48;;;14.50;99.90;;;;;;5048481;28;20060;-85
2023/03/24 12:27:35;;;;;;;7.03;2.28;;;14.30;99.90;;;;;;5023487;28;20048;-85
2023/03/24 12:30:13;;;;;;;10.07;2.25;;;14.10;99.90;;;;;;5069302;28;20328;-84
2023/03/24 12:32:47;;;;;;;9.80;1.70;;;14.10;99.90;;;;;;5054071;28;20056;-87
2023/03/24 12:35:23;;;;;;;6.82;1.70;;;14.30;99.90;;;;;;5071017;28;20487;-86
2023/03/24 12:38:01;;;;;;;6.40;1.90;;;14.20;99.90;;;;;;5069352;28;20090;-86
2023/03/24 12:40:49;;;;;;;7.50;1.60;;;14.20;99.90;;;;;;5070849;28;20059;-87
2023/03/24 12:43:41;;;;;;;12.30;2.25;;;14.20;99.90;;;;;;5050613;28;20093;-87
2023/03/24 12:46:27;;;;;;;8.47;2.20;;;14.20;99.90;;;;;;5049661;28;20063;-85
2023/03/24 12:49:14;;;;;;;7.75;2.00;;;14.70;99.90;;;;;;5050226;28;20618;-86
2023/03/24 12:51:52;;;;;;;7.03;1.48;;;14.40;99.90;;;;;;5033774;28;20170;-86
2023/03/24 12:54:44;;;;;;;5.85;1.50;;;14.40;99.90;;;;;;5049880;28;20040;-85
2023/03/24 12:57:15;;;;;;;7.40;2.28;;;14.50;99.90;;;;;;5061364;28;20083;-85
2023/03/24 12:59:45;;;;;;;7.00;2.22;;;14.60;99.90;;;;;;5066767;28;20554;-87
2023/03/24 13:02:32;;;;;;;11.20;2.00;;;14.60;99.90;;;;;;5068967;28;20052;-87
2023/03/24 13:05:07;;;;;;;11.10;2.38;;;14.60;99.00;;;;;;5088914;28;20040;-87
2023/03/24 13:07:42;;;;;;;6.50;1.85;;;14.40;99.90;;;;;;5053460;28;20364;-87
2023/03/24 13:10:19;;;;;;;6.72;1.55;;;14.60;99.90;;;;;;5069997;28;20036;-88
2023/03/24 13:13:14;;;;;;;11.45;2.45;;;14.20;99.90;;;;;;5068371;28;20098;-88